createdAt,value
2022-12-09T00:00:16.490Z,43.42
2022-12-09T00:02:46.736Z,66.57
2022-12-09T00:05:14.958Z,42.03
2022-12-09T00:07:43.402Z,44.03
2022-12-09T00:10:14.830Z,47.10
2022-12-09T00:12:42.877Z,48.77
2022-12-09T00:15:12.298Z,49.03
2022-12-09T00:17:40.611Z,47.78
2022-12-09T00:20:12.109Z,45.65
2022-12-09T00:22:40.827Z,53.30
2022-12-09T00:25:09.857Z,42.20
2022-12-09T00:27:37.914Z,47.13
2022-12-09T00:30:08.033Z,44.07
2022-12-09T00:32:36.441Z,39.10
2022-12-09T00:35:06.003Z,44.75
2022-12-09T00:37:36.917Z,50.47
2022-12-09T00:40:06.412Z,43.27
2022-12-09T00:42:34.864Z,43.53
2022-12-09T00:45:02.961Z,46.53
2022-12-09T00:47:31.263Z,52.87
2022-12-09T00:49:59.367Z,49.55
2022-12-09T00:52:28.352Z,43.33
2022-12-09T00:54:57.876Z,55.37
2022-12-09T00:57:25.851Z,46.08
2022-12-09T00:59:54.064Z,47.43
2022-12-09T01:02:22.699Z,47.50
2022-12-09T01:04:52.216Z,42.00
2022-12-09T01:07:20.518Z,50.67
2022-12-09T01:09:48.869Z,52.03
2022-12-09T01:12:18.487Z,43.70
2022-12-09T01:14:46.598Z,54.87
2022-12-09T01:17:17.941Z,45.20
2022-12-09T01:19:46.645Z,49.27
2022-12-09T01:22:14.921Z,40.37
2022-12-09T01:24:43.209Z,43.83
2022-12-09T01:27:11.303Z,48.73
2022-12-09T01:29:41.211Z,52.30
2022-12-09T01:32:09.624Z,44.87
2022-12-09T01:34:37.720Z,48.80
2022-12-09T01:37:06.322Z,48.93
2022-12-09T01:39:34.434Z,49.03
2022-12-09T01:42:03.398Z,48.30
2022-12-09T01:44:33.443Z,44.27
2022-12-09T01:47:03.983Z,49.83
2022-12-09T01:49:36.708Z,45.70
2022-12-09T01:52:11.954Z,47.80
2022-12-09T01:54:43.219Z,52.27
2022-12-09T01:57:12.122Z,45.50
2022-12-09T01:59:41.391Z,46.60
2022-12-09T02:02:15.625Z,46.17
2022-12-09T02:04:46.414Z,44.17
2022-12-09T02:07:14.668Z,53.53
2022-12-09T02:09:44.406Z,46.37
2022-12-09T02:12:15.410Z,48.13
2022-12-09T02:14:48.944Z,44.63
2022-12-09T02:17:33.330Z,37.50
2022-12-09T02:20:12.439Z,43.20
2022-12-09T02:22:44.837Z,44.57
2022-12-09T02:25:22.574Z,49.10
2022-12-09T02:28:01.468Z,44.47
2022-12-09T02:30:37.247Z,51.83
2022-12-09T02:33:24.891Z,60.03
2022-12-09T02:36:00.363Z,47.03
2022-12-09T02:38:31.969Z,47.47
2022-12-09T02:41:04.297Z,46.00
2022-12-09T02:43:38.018Z,49.60
2022-12-09T02:46:10.414Z,53.00
2022-12-09T02:48:42.489Z,62.10
2022-12-09T02:51:16.487Z,59.77
2022-12-09T02:53:47.011Z,57.33
2022-12-09T02:56:17.498Z,50.13
2022-12-09T02:58:45.762Z,53.23
2022-12-09T03:01:22.361Z,57.03
2022-12-09T03:03:52.747Z,46.73
2022-12-09T03:06:27.738Z,49.60
2022-12-09T03:09:01.238Z,65.47
2022-12-09T03:11:31.621Z,63.37
2022-12-09T03:14:05.718Z,52.07
2022-12-09T03:16:36.913Z,59.30
2022-12-09T03:19:10.271Z,42.33
2022-12-09T03:21:44.834Z,54.33
2022-12-09T03:24:16.381Z,44.37
2022-12-09T03:26:45.294Z,49.70
2022-12-09T03:29:19.349Z,46.63
2022-12-09T03:31:49.318Z,43.30
2022-12-09T03:34:21.018Z,50.13
2022-12-09T03:36:54.429Z,39.43
2022-12-09T03:39:28.056Z,52.97
2022-12-09T03:42:00.117Z,49.50
2022-12-09T03:44:37.041Z,44.80
2022-12-09T03:47:06.341Z,48.73
2022-12-09T03:49:34.953Z,50.37
2022-12-09T03:52:12.171Z,51.57
2022-12-09T03:54:45.376Z,54.37
2022-12-09T03:57:18.982Z,49.47
2022-12-09T03:59:52.854Z,58.40
2022-12-09T04:02:22.273Z,49.67
2022-12-09T04:04:50.465Z,48.90
2022-12-09T04:07:20.092Z,46.53
2022-12-09T04:09:48.088Z,56.50
2022-12-09T04:12:16.327Z,61.27
2022-12-09T04:14:44.532Z,58.00
2022-12-09T04:17:13.604Z,51.60
2022-12-09T04:19:42.143Z,52.87
2022-12-09T04:22:10.585Z,51.83
2022-12-09T04:24:40.525Z,49.03
2022-12-09T04:27:08.536Z,48.37
2022-12-09T04:29:37.080Z,47.90
2022-12-09T04:32:06.107Z,63.70
2022-12-09T04:34:34.785Z,51.00
2022-12-09T04:37:03.062Z,54.43
2022-12-09T04:39:32.191Z,53.53
2022-12-09T04:42:01.453Z,57.77
2022-12-09T04:44:30.068Z,50.53
2022-12-09T04:46:58.547Z,59.57
2022-12-09T04:49:26.883Z,54.40
2022-12-09T04:51:55.125Z,41.13
2022-12-09T04:54:23.544Z,56.43
2022-12-09T04:56:51.514Z,51.43
2022-12-09T04:59:21.170Z,51.37
2022-12-09T05:01:49.185Z,52.10
2022-12-09T05:04:18.000Z,51.53
2022-12-09T05:06:46.588Z,51.00
2022-12-09T05:09:16.010Z,55.07
2022-12-09T05:11:44.297Z,44.63
2022-12-09T05:14:12.515Z,49.47
2022-12-09T05:16:42.197Z,55.60
2022-12-09T05:19:11.390Z,49.30
2022-12-09T05:21:40.035Z,59.73
2022-12-09T05:24:08.430Z,54.00
2022-12-09T05:26:37.384Z,50.67
2022-12-09T05:29:06.471Z,51.53
2022-12-09T05:31:34.843Z,54.07
2022-12-09T05:34:04.670Z,54.27
2022-12-09T05:36:33.048Z,55.53
2022-12-09T05:39:01.078Z,46.13
2022-12-09T05:41:29.198Z,53.53
2022-12-09T05:43:57.778Z,51.57
2022-12-09T05:46:25.786Z,64.17
2022-12-09T05:48:54.173Z,109.57
2022-12-09T05:51:26.536Z,50.80
2022-12-09T05:53:55.041Z,52.87
2022-12-09T05:56:25.476Z,52.93
2022-12-09T05:58:54.919Z,51.70
2022-12-09T06:01:24.307Z,50.77
2022-12-09T06:03:54.154Z,48.63
2022-12-09T06:06:26.830Z,56.00
2022-12-09T06:08:57.942Z,50.53
2022-12-09T06:11:26.901Z,58.43
2022-12-09T06:13:55.626Z,49.47
2022-12-09T06:16:24.279Z,49.83
2022-12-09T06:18:52.888Z,54.80
2022-12-09T06:21:21.964Z,46.30
2022-12-09T06:23:52.343Z,68.90
2022-12-09T06:26:23.793Z,57.67
2022-12-09T06:28:52.210Z,58.87
2022-12-09T06:31:21.250Z,99.37
2022-12-09T06:33:58.418Z,59.90
2022-12-09T06:36:28.294Z,85.13
2022-12-09T06:39:04.493Z,107.97
2022-12-09T06:41:36.027Z,130.83
2022-12-09T06:44:05.499Z,139.57
2022-12-09T06:46:33.878Z,176.73
2022-12-09T06:49:01.994Z,195.17
2022-12-09T06:51:30.866Z,188.30
2022-12-09T06:54:00.396Z,230.70
2022-12-09T06:56:28.909Z,430.63
2022-12-09T06:58:57.480Z,519.00
2022-12-09T07:01:27.680Z,510.63
2022-12-09T07:03:58.581Z,126.00
2022-12-09T07:06:29.871Z,56.80
2022-12-09T07:09:02.402Z,55.33
2022-12-09T07:11:31.819Z,56.63
2022-12-09T07:14:00.567Z,59.27
2022-12-09T07:16:29.474Z,54.60
2022-12-09T07:18:58.279Z,63.03
2022-12-09T07:21:27.002Z,56.20
2022-12-09T07:23:56.027Z,58.83
2022-12-09T07:26:25.667Z,62.77
2022-12-09T07:28:53.768Z,58.47
2022-12-09T07:31:24.519Z,56.87
2022-12-09T07:33:54.401Z,62.30
2022-12-09T07:36:25.235Z,53.57
2022-12-09T07:38:56.399Z,58.37
2022-12-09T07:41:27.366Z,43.27
2022-12-09T07:43:55.895Z,45.53
2022-12-09T07:46:25.889Z,58.40
2022-12-09T07:48:55.248Z,60.23
2022-12-09T07:51:24.502Z,81.13
2022-12-09T07:53:53.725Z,70.87
2022-12-09T07:56:28.363Z,66.70
2022-12-09T07:58:57.457Z,64.17
2022-12-09T08:01:28.372Z,74.73
2022-12-09T08:03:57.961Z,78.10
2022-12-09T08:06:28.590Z,73.93
2022-12-09T08:09:00.718Z,77.37
2022-12-09T08:11:33.190Z,68.70
2022-12-09T08:14:10.494Z,69.20
2022-12-09T08:16:43.090Z,60.83
2022-12-09T08:19:12.568Z,61.23
2022-12-09T08:21:41.672Z,74.03
2022-12-09T08:24:13.783Z,74.07
2022-12-09T08:26:43.461Z,66.33
2022-12-09T08:29:15.131Z,70.60
2022-12-09T08:31:44.656Z,58.53
2022-12-09T08:34:14.751Z,56.83
2022-12-09T08:36:44.409Z,53.90
2022-12-09T08:39:13.902Z,64.87
2022-12-09T08:41:45.499Z,50.20
2022-12-09T08:44:16.121Z,52.87
2022-12-09T08:46:46.409Z,50.43
2022-12-09T08:49:19.104Z,51.73
2022-12-09T08:51:49.205Z,86.68
2022-12-09T08:54:17.991Z,71.00
2022-12-09T08:56:48.672Z,74.80
2022-12-09T08:59:17.692Z,69.57
2022-12-09T09:01:46.761Z,105.30
2022-12-09T09:04:19.224Z,162.77
2022-12-09T09:06:50.401Z,158.63
2022-12-09T09:09:20.624Z,153.07
2022-12-09T09:11:51.001Z,235.40
2022-12-09T09:14:19.322Z,174.97
2022-12-09T09:16:48.209Z,161.07
2022-12-09T09:19:19.992Z,183.03
2022-12-09T09:21:48.841Z,258.23
2022-12-09T09:24:19.934Z,278.97
2022-12-09T09:26:51.017Z,276.67
2022-12-09T09:29:22.036Z,207.90
2022-12-09T09:31:56.229Z,202.77
2022-12-09T09:34:26.066Z,126.90
2022-12-09T09:36:54.835Z,75.32
2022-12-09T09:39:24.050Z,82.85
2022-12-09T09:41:56.343Z,99.53
2022-12-09T09:44:29.590Z,71.63
2022-12-09T09:46:59.503Z,63.60
2022-12-09T09:49:36.761Z,75.30
2022-12-09T09:52:08.758Z,115.20
2022-12-09T09:54:37.969Z,95.53
2022-12-09T09:57:15.059Z,85.47
2022-12-09T09:59:54.031Z,93.22
2022-12-09T10:02:33.677Z,117.15
2022-12-09T10:05:14.444Z,139.52
2022-12-09T10:07:45.248Z,144.48
2022-12-09T10:10:24.972Z,189.03
2022-12-09T10:13:12.393Z,191.63
2022-12-09T10:15:50.378Z,189.77
2022-12-09T10:18:22.880Z,128.18
2022-12-09T10:20:51.479Z,103.15
2022-12-09T10:23:22.490Z,108.22
2022-12-09T10:25:55.660Z,77.43
2022-12-09T10:28:28.464Z,71.65
2022-12-09T10:30:58.106Z,61.67
2022-12-09T10:33:29.622Z,66.43
2022-12-09T10:35:58.423Z,86.20
2022-12-09T10:38:28.195Z,94.10
2022-12-09T10:41:04.544Z,103.95
2022-12-09T10:43:35.520Z,86.80
2022-12-09T10:46:22.881Z,83.72
2022-12-09T10:49:02.296Z,71.70
2022-12-09T10:51:32.921Z,95.53
2022-12-09T10:54:04.308Z,78.38
2022-12-09T10:56:36.730Z,96.82
2022-12-09T10:59:19.490Z,92.03
2022-12-09T11:01:53.569Z,70.00
2022-12-09T11:04:26.834Z,58.00
2022-12-09T11:07:00.045Z,71.00
2022-12-09T11:09:30.979Z,95.20
2022-12-09T11:12:01.364Z,142.77
2022-12-09T11:14:35.966Z,138.60
2022-12-09T11:17:16.498Z,89.43
2022-12-09T11:19:47.915Z,107.93
2022-12-09T11:22:29.262Z,91.85
2022-12-09T11:25:17.493Z,88.28
2022-12-09T11:27:52.173Z,80.32
2022-12-09T11:30:24.939Z,88.65
2022-12-09T11:33:09.108Z,80.07
2022-12-09T11:35:51.794Z,74.60
2022-12-09T11:38:29.869Z,111.35
2022-12-09T11:41:04.337Z,104.25
2022-12-09T11:43:39.817Z,130.93
2022-12-09T11:46:21.730Z,122.28
2022-12-09T11:48:57.738Z,152.70
2022-12-09T11:51:29.423Z,140.50
2022-12-09T11:54:03.915Z,139.52
2022-12-09T11:56:33.845Z,146.80
2022-12-09T11:59:05.994Z,213.50
2022-12-09T12:01:48.043Z,185.70
2022-12-09T12:04:20.163Z,168.52
2022-12-09T12:06:50.876Z,156.27
2022-12-09T12:09:25.150Z,214.07
2022-12-09T12:12:03.664Z,192.45
2022-12-09T12:14:32.922Z,181.77
2022-12-09T12:17:10.476Z,158.73
2022-12-09T12:19:41.202Z,155.05
2022-12-09T12:22:54.514Z,190.48
2022-12-09T12:25:42.681Z,196.70
2022-12-09T12:28:25.695Z,206.27
2022-12-09T12:31:02.519Z,159.35
2022-12-09T12:36:47.893Z,117.03
2022-12-09T12:39:29.170Z,113.78
2022-12-09T12:42:06.054Z,129.48
2022-12-09T12:45:04.548Z,173.13
2022-12-09T12:47:41.239Z,175.70
2022-12-09T12:50:34.761Z,174.98
2022-12-09T12:53:11.932Z,128.20
2022-12-09T12:55:51.442Z,146.60
2022-12-09T12:58:32.663Z,126.90
2022-12-09T13:01:06.787Z,134.25
2022-12-09T13:03:44.977Z,135.98
2022-12-09T13:06:18.235Z,187.60
2022-12-09T13:08:51.898Z,180.70
2022-12-09T13:11:24.851Z,172.38
2022-12-09T13:13:57.102Z,154.40
2022-12-09T13:16:30.410Z,171.30
2022-12-09T13:19:08.712Z,143.25
2022-12-09T13:21:39.100Z,183.88
2022-12-09T13:24:21.816Z,181.43
2022-12-09T13:26:58.265Z,202.30
2022-12-09T13:29:35.116Z,178.05
2022-12-09T13:32:18.180Z,236.05
2022-12-09T13:34:51.974Z,222.65
2022-12-09T13:37:35.407Z,226.35
2022-12-09T13:40:06.876Z,157.63
2022-12-09T13:42:56.597Z,140.85
2022-12-09T13:45:33.647Z,128.75
2022-12-09T13:48:05.347Z,99.50
2022-12-09T13:50:39.960Z,93.80
2022-12-09T13:53:26.407Z,107.45
2022-12-09T13:55:57.911Z,117.40
2022-12-09T13:58:59.415Z,140.85
2022-12-09T14:01:36.863Z,170.73
2022-12-09T14:04:14.279Z,110.88
2022-12-09T14:06:54.257Z,112.90
2022-12-09T14:09:34.337Z,113.78
2022-12-09T14:12:06.878Z,112.00
2022-12-09T14:14:47.486Z,117.10
2022-12-09T14:17:42.385Z,175.13
2022-12-09T14:20:20.380Z,99.88
2022-12-09T14:23:13.339Z,101.60
2022-12-09T14:26:06.641Z,103.05
2022-12-09T14:28:59.744Z,105.78
2022-12-09T14:32:02.997Z,108.88
2022-12-09T14:34:38.060Z,112.68
2022-12-09T14:37:57.907Z,101.40
2022-12-09T14:40:53.838Z,112.53
2022-12-09T14:43:56.382Z,111.53
2022-12-09T14:46:30.076Z,135.65
2022-12-09T14:49:00.084Z,125.72
2022-12-09T14:51:36.258Z,147.20
2022-12-09T14:54:08.003Z,167.20
2022-12-09T14:56:36.637Z,177.80
2022-12-09T14:59:08.791Z,192.20
2022-12-09T15:01:51.341Z,209.57
2022-12-09T15:04:32.460Z,203.80
2022-12-09T15:07:12.037Z,240.10
2022-12-09T15:09:49.168Z,284.95
2022-12-09T15:12:17.867Z,276.58
2022-12-09T15:14:47.831Z,329.23
2022-12-09T15:17:24.351Z,359.80
2022-12-09T15:20:00.280Z,341.05
2022-12-09T15:22:31.774Z,405.88
2022-12-09T15:25:02.385Z,351.10
2022-12-09T15:27:31.993Z,283.10
2022-12-09T15:30:01.555Z,297.50
2022-12-09T15:32:31.760Z,350.55
2022-12-09T15:35:16.817Z,310.52
2022-12-09T15:37:46.036Z,292.75
2022-12-09T15:40:19.764Z,274.50
2022-12-09T15:48:34.752Z,295.55
2022-12-09T15:51:07.729Z,278.15
2022-12-09T15:53:41.054Z,283.15
2022-12-09T15:56:15.556Z,278.88
2022-12-09T15:58:49.374Z,291.40
2022-12-09T16:01:32.727Z,238.68
2022-12-09T16:04:02.921Z,239.73
2022-12-09T16:06:35.183Z,282.00
2022-12-09T16:09:04.984Z,280.63
2022-12-09T16:11:39.254Z,263.05
2022-12-09T16:14:08.374Z,235.50
2022-12-09T16:16:43.560Z,241.75
2022-12-09T16:19:33.642Z,208.38
2022-12-09T16:22:06.640Z,200.45
2022-12-09T16:25:06.066Z,206.43
2022-12-09T16:27:28.334Z,196.45
2022-12-09T16:30:05.291Z,246.18
2022-12-09T16:32:42.154Z,273.60
2022-12-09T16:35:35.550Z,311.23
2022-12-09T16:38:16.518Z,313.35
2022-12-09T16:41:06.861Z,315.43
2022-12-09T16:43:35.419Z,340.13
2022-12-09T16:46:36.261Z,325.63
2022-12-09T16:49:06.314Z,344.85
2022-12-09T16:51:34.384Z,363.90
2022-12-09T16:54:02.873Z,339.60
2022-12-09T16:56:33.023Z,310.50
2022-12-09T16:59:00.986Z,297.75
2022-12-09T17:01:35.769Z,269.63
2022-12-09T17:04:13.291Z,265.15
2022-12-09T17:06:41.274Z,236.55
2022-12-09T17:09:09.383Z,266.75
2022-12-09T17:11:37.465Z,323.33
2022-12-09T17:14:05.887Z,350.92
2022-12-09T17:16:34.496Z,376.10
2022-12-09T17:19:08.647Z,301.30
2022-12-09T17:21:37.380Z,294.42
2022-12-09T17:24:08.926Z,372.07
2022-12-09T17:26:36.866Z,385.02
2022-12-09T17:29:04.872Z,399.23
2022-12-09T17:31:33.138Z,394.10
2022-12-09T17:34:01.272Z,429.43
2022-12-09T17:36:30.899Z,393.88
2022-12-09T17:39:01.609Z,312.58
2022-12-09T17:41:29.777Z,304.40
2022-12-09T17:44:00.546Z,302.25
2022-12-09T17:46:29.024Z,321.38
2022-12-09T17:48:57.778Z,351.88
2022-12-09T17:51:27.034Z,371.52
2022-12-09T17:54:00.647Z,395.37
2022-12-09T17:56:28.837Z,425.08
2022-12-09T17:59:01.339Z,402.52
2022-12-09T18:01:29.595Z,392.35
2022-12-09T18:04:01.646Z,405.40
2022-12-09T18:09:26.537Z,331.05
2022-12-09T18:11:54.750Z,358.55
2022-12-09T18:14:23.415Z,379.23
2022-12-09T18:16:51.462Z,353.55
2022-12-09T18:19:21.302Z,311.65
2022-12-09T18:21:49.710Z,294.73
2022-12-09T18:24:18.362Z,341.08
2022-12-09T18:26:48.123Z,382.02
2022-12-09T18:29:17.786Z,444.60
2022-12-09T18:31:46.127Z,483.20
2022-12-09T18:34:14.501Z,541.70
2022-12-09T18:36:42.802Z,503.77
2022-12-09T18:39:10.925Z,412.93
2022-12-09T18:41:39.190Z,433.17
2022-12-09T18:44:08.930Z,395.98
2022-12-09T18:46:38.585Z,411.13
2022-12-09T18:49:09.508Z,415.75
2022-12-09T18:51:38.934Z,487.47
2022-12-09T18:54:07.746Z,505.00
2022-12-09T18:56:36.906Z,511.47
2022-12-09T18:59:07.077Z,514.17
2022-12-09T19:01:40.857Z,499.63
2022-12-09T19:04:12.829Z,411.98
2022-12-09T19:06:42.451Z,464.20
2022-12-09T19:09:12.775Z,476.53
2022-12-09T19:11:42.931Z,474.10
2022-12-09T19:14:11.690Z,497.40
2022-12-09T19:16:41.958Z,510.17
2022-12-09T19:19:10.873Z,517.77
2022-12-09T19:21:39.938Z,383.40
2022-12-09T19:24:11.622Z,288.08
2022-12-09T19:26:39.963Z,261.45
2022-12-09T19:29:10.432Z,272.75
2022-12-09T19:31:43.520Z,276.13
2022-12-09T19:34:14.517Z,265.83
2022-12-09T19:36:42.640Z,297.73
2022-12-09T19:39:12.282Z,328.60
2022-12-09T19:41:41.450Z,375.57
2022-12-09T19:44:15.393Z,481.77
2022-12-09T19:46:47.745Z,484.60
2022-12-09T19:49:17.847Z,494.47
2022-12-09T19:51:47.152Z,506.17
2022-12-09T19:54:16.127Z,457.13
2022-12-09T19:56:45.296Z,463.57
2022-12-09T19:59:13.822Z,473.67
2022-12-09T20:01:45.179Z,409.77
2022-12-09T20:04:46.899Z,368.27
2022-12-09T20:07:07.865Z,420.40
2022-12-09T20:09:37.954Z,452.87
2022-12-09T20:12:06.304Z,418.13
2022-12-09T20:14:34.171Z,392.77
2022-12-09T20:17:03.042Z,527.37
2022-12-09T20:19:32.451Z,497.33
2022-12-09T20:22:00.539Z,445.77
2022-12-09T20:24:30.725Z,394.90
2022-12-09T20:26:58.798Z,415.37
2022-12-09T20:29:29.997Z,387.05
2022-12-09T20:32:00.838Z,329.95
2022-12-09T20:34:29.071Z,299.00
2022-12-09T20:36:58.938Z,301.52
2022-12-09T20:39:27.563Z,377.60
2022-12-09T20:41:55.443Z,450.97
2022-12-09T20:44:24.274Z,418.08
2022-12-09T20:46:54.499Z,377.60
2022-12-09T20:49:26.754Z,386.70
2022-12-09T20:51:55.305Z,410.67
2022-12-09T20:54:24.873Z,464.77
2022-12-09T20:56:55.071Z,455.40
2022-12-09T20:59:23.688Z,462.15
2022-12-09T21:01:51.525Z,424.87
2022-12-09T21:04:19.468Z,366.20
2022-12-09T21:06:48.033Z,376.25
2022-12-09T21:09:18.849Z,358.88
2022-12-09T21:11:50.021Z,449.57
2022-12-09T21:14:19.312Z,368.45
2022-12-09T21:16:50.926Z,450.90
2022-12-09T21:19:24.467Z,458.10
2022-12-09T21:21:52.786Z,308.65
2022-12-09T21:24:22.286Z,233.43
2022-12-09T21:26:53.343Z,229.02
2022-12-09T21:29:25.713Z,254.13
2022-12-09T21:31:56.944Z,270.33
2022-12-09T21:34:25.527Z,311.98
2022-12-09T21:36:53.475Z,340.92
2022-12-09T21:39:21.809Z,365.77
2022-12-09T21:41:51.313Z,405.92
2022-12-09T21:44:22.917Z,399.05
2022-12-09T21:46:50.892Z,432.13
2022-12-09T21:49:18.925Z,363.27
2022-12-09T21:51:47.701Z,378.60
2022-12-09T21:54:15.796Z,390.73
2022-12-09T21:56:43.735Z,435.40
2022-12-09T21:59:13.953Z,369.95
2022-12-09T22:01:43.580Z,361.27
2022-12-09T22:04:14.111Z,311.75
2022-12-09T22:06:42.058Z,331.88
2022-12-09T22:09:11.827Z,293.52
2022-12-09T22:11:40.587Z,287.70
2022-12-09T22:14:10.631Z,346.88
2022-12-09T22:16:42.219Z,363.55
2022-12-09T22:19:14.169Z,372.73
2022-12-09T22:21:42.561Z,355.63
2022-12-09T22:24:13.107Z,328.33
2022-12-09T22:26:43.537Z,334.95
2022-12-09T22:29:13.273Z,360.85
2022-12-09T22:31:43.409Z,396.03
2022-12-09T22:34:15.872Z,526.17
2022-12-09T22:36:44.174Z,478.13
2022-12-09T22:39:15.158Z,452.97
2022-12-09T22:41:43.888Z,410.93
2022-12-09T22:44:15.202Z,464.63
2022-12-09T22:46:45.456Z,402.60
2022-12-09T22:49:15.612Z,372.02
2022-12-09T22:51:45.065Z,371.95
2022-12-09T22:54:14.017Z,384.98
2022-12-09T22:56:43.402Z,365.77
2022-12-09T22:59:12.940Z,427.00
2022-12-09T23:01:42.107Z,421.83
2022-12-09T23:04:13.410Z,377.92
2022-12-09T23:06:42.526Z,397.42
2022-12-09T23:09:15.523Z,373.13
2022-12-09T23:11:43.962Z,366.55
2022-12-09T23:14:11.882Z,344.45
2022-12-09T23:16:39.728Z,350.25
2022-12-09T23:19:07.566Z,379.52
2022-12-09T23:21:39.015Z,359.58
2022-12-09T23:24:10.484Z,324.33
2022-12-09T23:26:40.358Z,314.70
2022-12-09T23:29:12.872Z,358.05
2022-12-09T23:31:41.076Z,448.87
2022-12-09T23:34:10.142Z,396.40
2022-12-09T23:36:42.263Z,445.57
2022-12-09T23:39:19.314Z,440.92
2022-12-09T23:41:48.853Z,427.95
2022-12-09T23:44:18.513Z,464.07
2022-12-09T23:46:46.455Z,353.63
2022-12-09T23:49:14.581Z,391.92
2022-12-09T23:51:44.910Z,310.52
2022-12-09T23:54:14.821Z,290.15
2022-12-09T23:56:50.659Z,325.25
2022-12-09T23:59:21.511Z,394.58
